Time;durP1;ratioP1;P1;durP2;ratioP2;P2;SDS_P1;SDS_P2;PMS_P1;PMS_P2;Temp;Humidity;BMP_temperature;BMP_pressure;BME280_temperature;BME280_humidity;BME280_pressure;Samples;Min_cycle;Max_cycle;Signal;HPM_P1;HPM_P2
2021/11/21 00:00:16;;;;;;;14.77;8.43;;;;;;;8.98;100.00;101374.47;702264;28;824;-64
2021/11/21 00:00:41;;;;;;;15.02;9.00;;;;;;;8.98;100.00;101367.47;702222;28;844;-64
2021/11/21 00:01:03;;;;;;;16.00;8.25;;;;;;;9.08;100.00;101367.19;702233;28;957;-64
2021/11/21 00:01:26;;;;;;;14.22;8.00;;;;;;;9.09;100.00;101372.44;702105;28;1414;-64
2021/11/21 00:01:46;;;;;;;12.82;7.88;;;;;;;9.07;100.00;101368.09;701897;28;974;-64
2021/11/21 00:02:07;;;;;;;13.40;8.03;;;;;;;9.04;100.00;101362.00;701884;28;894;-64
2021/11/21 00:02:27;;;;;;;14.93;8.18;;;;;;;9.01;100.00;101364.72;702083;28;864;-63
2021/11/21 00:02:48;;;;;;;13.73;8.00;;;;;;;9.06;100.00;101366.41;702048;28;896;-64
2021/11/21 00:03:12;;;;;;;13.17;7.53;;;;;;;9.07;100.00;101357.59;702006;28;867;-63
2021/11/21 00:03:32;;;;;;;12.48;7.55;;;;;;;9.06;100.00;101367.25;702159;28;827;-64
2021/11/21 00:03:53;;;;;;;12.97;7.80;;;;;;;9.05;100.00;101365.53;702047;28;764;-63
2021/11/21 00:04:13;;;;;;;12.87;7.87;;;;;;;9.06;100.00;101366.41;702267;28;853;-63
2021/11/21 00:04:34;;;;;;;11.90;7.83;;;;;;;9.07;100.00;101365.47;702355;28;886;-63
2021/11/21 00:04:54;;;;;;;12.95;7.85;;;;;;;9.06;100.00;101361.13;702156;28;977;-63
2021/11/21 00:05:15;;;;;;;12.33;7.87;;;;;;;9.04;100.00;101363.78;702283;28;981;-64
2021/11/21 00:05:40;;;;;;;12.93;7.82;;;;;;;9.02;100.00;101361.22;702235;28;968;-63
2021/11/21 00:06:01;;;;;;;11.80;7.60;;;;;;;9.02;100.00;101371.72;702095;28;995;-64
2021/11/21 00:06:21;;;;;;;13.63;8.00;;;;;;;9.02;100.00;101360.34;702304;28;917;-64
2021/11/21 00:06:42;;;;;;;12.27;7.85;;;;;;;9.03;100.00;101362.94;702222;28;981;-64
2021/11/21 00:07:02;;;;;;;13.87;8.00;;;;;;;9.04;100.00;101359.38;702251;28;828;-64
2021/11/21 00:07:22;;;;;;;14.05;8.05;;;;;;;9.03;100.00;101362.06;702000;28;1406;-62
2021/11/21 00:07:43;;;;;;;12.67;7.50;;;;;;;9.09;100.00;101366.31;701674;28;801;-64
2021/11/21 00:08:07;;;;;;;12.93;7.55;;;;;;;9.08;100.00;101369.81;701833;28;1002;-64
2021/11/21 00:08:27;;;;;;;10.95;7.38;;;;;;;9.04;100.00;101364.66;701909;28;946;-64
2021/11/21 00:08:47;;;;;;;11.87;7.27;;;;;;;9.04;100.00;101369.91;702002;28;966;-63
2021/11/21 00:09:08;;;;;;;12.80;7.90;;;;;;;9.03;100.00;101362.94;702098;28;827;-64
2021/11/21 00:09:28;;;;;;;11.77;7.72;;;;;;;9.02;100.00;101361.22;702184;28;1438;-63
2021/11/21 00:09:50;;;;;;;13.13;7.97;;;;;;;9.03;100.00;101362.06;702273;28;852;-63
2021/11/21 00:10:14;;;;;;;14.63;7.65;;;;;;;9.04;100.00;101367.28;702164;28;855;-63
2021/11/21 00:10:35;;;;;;;14.77;7.57;;;;;;;9.03;100.00;101362.94;702181;28;1013;-64
2021/11/21 00:10:57;;;;;;;15.10;7.55;;;;;;;9.03;100.00;101362.94;702273;28;922;-64
2021/11/21 00:11:17;;;;;;;12.23;7.28;;;;;;;9.05;100.00;101362.91;702001;28;871;-64
2021/11/21 00:11:38;;;;;;;12.95;7.18;;;;;;;9.06;100.00;101362.00;702337;28;810;-64
2021/11/21 00:11:58;;;;;;;14.37;7.80;;;;;;;9.03;100.00;101359.44;702245;28;874;-64
2021/11/21 00:12:22;;;;;;;12.23;7.40;;;;;;;9.03;100.00;101362.06;702021;28;847;-64
2021/11/21 00:12:42;;;;;;;11.90;7.30;;;;;;;9.04;100.00;101364.66;702309;28;862;-64
2021/11/21 00:13:03;;;;;;;11.52;7.15;;;;;;;9.07;100.00;101365.47;702102;28;1902;-63
2021/11/21 00:13:24;;;;;;;11.30;6.97;;;;;;;9.09;100.00;101358.44;701865;28;1310;-64
2021/11/21 00:13:48;;;;;;;13.15;7.30;;;;;;;9.09;100.00;101358.44;702084;28;827;-64
2021/11/21 00:14:09;;;;;;;12.40;7.30;;;;;;;9.09;100.00;101363.69;701879;28;890;-64
2021/11/21 00:14:30;;;;;;;11.68;7.18;;;;;;;9.09;100.00;101361.91;702064;28;872;-64
2021/11/21 00:14:50;;;;;;;12.50;7.40;;;;;;;9.07;100.00;101354.97;702102;28;1051;-63
2021/11/21 00:15:11;;;;;;;11.98;6.75;;;;;;;9.06;100.00;101362.00;702016;28;819;-63
2021/11/21 00:15:33;;;;;;;10.57;5.97;;;;;;;9.06;100.00;101361.13;702280;28;846;-64
2021/11/21 00:15:53;;;;;;;11.73;6.30;;;;;;;9.04;100.00;101362.00;702145;28;835;-64
2021/11/21 00:16:14;;;;;;;11.40;6.25;;;;;;;9.04;100.00;101364.66;702188;28;839;-64
2021/11/21 00:16:34;;;;;;;11.30;6.33;;;;;;;9.03;100.00;101357.66;702149;28;970;-64
2021/11/21 00:16:57;;;;;;;11.63;5.80;;;;;;;9.10;100.00;101347.00;702218;28;854;-64
2021/11/21 00:17:17;;;;;;;10.77;5.57;;;;;;;9.09;100.00;101355.78;702264;28;668;-64
2021/11/21 00:17:38;;;;;;;10.53;5.50;;;;;;;9.09;100.00;101350.53;702224;28;796;-65
2021/11/21 00:17:58;;;;;;;11.80;5.87;;;;;;;9.06;100.00;101356.72;701804;28;780;-64
2021/11/21 00:18:19;;;;;;;9.88;5.55;;;;;;;9.07;100.00;101357.59;702243;28;803;-63
2021/11/21 00:18:39;;;;;;;9.55;5.82;;;;;;;9.06;100.00;101353.25;702112;28;1092;-64
2021/11/21 00:19:00;;;;;;;9.80;5.77;;;;;;;9.07;100.00;101357.59;702342;28;808;-64
2021/11/21 00:19:20;;;;;;;10.73;5.60;;;;;;;9.03;100.00;101352.41;702143;28;1347;-63
2021/11/21 00:19:43;;;;;;;10.67;5.40;;;;;;;9.06;100.00;101351.47;702194;28;843;-64
2021/11/21 00:20:04;;;;;;;10.52;5.05;;;;;;;9.04;100.00;101346.25;701906;28;1319;-63
2021/11/21 00:20:25;;;;;;;9.10;5.00;;;;;;;9.06;100.00;101345.34;702112;28;1091;-63
2021/11/21 00:20:45;;;;;;;8.13;4.83;;;;;;;9.06;100.00;101348.84;702169;28;980;-63
2021/11/21 00:21:06;;;;;;;8.43;4.70;;;;;;;9.04;100.00;101354.13;702326;28;887;-63
2021/11/21 00:21:27;;;;;;;9.32;4.82;;;;;;;9.06;100.00;101350.63;702182;28;1009;-63
2021/11/21 00:21:47;;;;;;;10.35;5.10;;;;;;;9.03;100.00;101347.16;702225;28;1041;-63
2021/11/21 00:22:11;;;;;;;9.80;4.90;;;;;;;9.04;100.00;101348.00;702178;28;951;-63
2021/11/21 00:22:35;;;;;;;10.25;5.10;;;;;;;9.06;100.00;101353.25;702033;28;911;-64
2021/11/21 00:22:55;;;;;;;8.98;4.78;;;;;;;9.05;100.00;101349.75;702291;28;858;-63
2021/11/21 00:23:22;;;;;;;8.15;4.65;;;;;;;9.03;100.00;101341.03;702164;28;899;-63
2021/11/21 00:23:42;;;;;;;9.52;4.78;;;;;;;9.04;100.00;101348.88;702213;28;895;-63
2021/11/21 00:24:03;;;;;;;9.30;4.90;;;;;;;9.06;100.00;101351.47;702202;28;966;-63
2021/11/21 00:24:26;;;;;;;10.27;4.90;;;;;;;9.04;100.00;101343.59;702154;28;919;-63
2021/11/21 00:24:46;;;;;;;9.05;4.93;;;;;;;9.04;100.00;101348.00;702120;28;940;-63
2021/11/21 00:25:07;;;;;;;8.20;4.70;;;;;;;9.04;100.00;101348.88;702193;28;807;-63
2021/11/21 00:25:27;;;;;;;8.38;4.53;;;;;;;9.07;100.00;101349.69;702126;28;1087;-64
2021/11/21 00:25:48;;;;;;;9.63;5.17;;;;;;;9.02;100.00;101337.56;702232;28;853;-64
2021/11/21 00:26:09;;;;;;;9.35;5.10;;;;;;;9.06;100.00;101348.00;702103;28;840;-64
2021/11/21 00:26:29;;;;;;;9.73;5.22;;;;;;;9.06;100.00;101345.34;702313;28;1078;-63
2021/11/21 00:26:49;;;;;;;10.47;5.30;;;;;;;9.04;100.00;101338.34;702184;28;953;-63
2021/11/21 00:27:10;;;;;;;10.30;5.20;;;;;;;9.04;100.00;101342.75;702167;28;799;-64
2021/11/21 00:27:31;;;;;;;11.02;5.40;;;;;;;9.02;100.00;101339.31;702123;28;1069;-63
2021/11/21 00:27:51;;;;;;;9.63;5.37;;;;;;;9.02;100.00;101340.19;701703;28;799;-63
2021/11/21 00:28:11;;;;;;;9.90;5.10;;;;;;;9.02;100.00;101332.28;702216;28;1001;-62
2021/11/21 00:28:31;;;;;;;10.73;5.13;;;;;;;9.04;100.00;101340.97;702288;28;856;-63
2021/11/21 00:28:55;;;;;;;10.63;5.23;;;;;;;9.04;100.00;101337.50;702004;28;904;-63
2021/11/21 00:29:15;;;;;;;11.20;5.40;;;;;;;9.03;100.00;101334.00;702226;28;1449;-64
2021/11/21 00:29:35;;;;;;;11.98;5.40;;;;;;;9.02;100.00;101329.66;702046;28;1017;-64
2021/11/21 00:29:56;;;;;;;9.97;5.37;;;;;;;9.07;100.00;101339.19;702235;28;845;-63
2021/11/21 00:30:16;;;;;;;8.93;4.90;;;;;;;9.08;100.00;101336.50;702170;28;803;-64
2021/11/21 00:30:36;;;;;;;8.98;5.00;;;;;;;9.09;100.00;101340.88;702150;28;1032;-64
2021/11/21 00:30:57;;;;;;;10.03;5.00;;;;;;;9.09;100.00;101337.38;702148;28;966;-64
2021/11/21 00:31:18;;;;;;;9.35;5.32;;;;;;;9.07;100.00;101337.41;702352;28;838;-64
2021/11/21 00:31:38;;;;;;;9.27;4.95;;;;;;;9.06;100.00;101337.47;702233;28;1025;-64
2021/11/21 00:32:02;;;;;;;10.23;5.22;;;;;;;9.05;100.00;101336.59;702167;28;1049;-64
2021/11/21 00:32:22;;;;;;;8.90;5.30;;;;;;;9.06;100.00;101340.09;702127;28;1112;-64
2021/11/21 00:32:43;;;;;;;9.93;5.18;;;;;;;9.04;100.00;101333.09;702178;28;919;-64
2021/11/21 00:33:04;;;;;;;10.80;5.47;;;;;;;9.04;100.00;101333.09;702042;28;1893;-63
2021/11/21 00:33:24;;;;;;;9.98;5.50;;;;;;;9.05;100.00;101328.72;702097;28;1093;-63
2021/11/21 00:33:45;;;;;;;11.10;5.80;;;;;;;9.05;100.00;101333.97;702232;28;898;-63
2021/11/21 00:34:05;;;;;;;12.40;5.80;;;;;;;9.06;100.00;101334.84;702108;28;922;-63
2021/11/21 00:34:26;;;;;;;11.60;5.88;;;;;;;9.05;100.00;101328.72;702194;28;807;-64
2021/11/21 00:34:47;;;;;;;10.77;5.67;;;;;;;9.07;100.00;101329.53;702278;28;927;-63
2021/11/21 00:35:08;;;;;;;11.63;5.78;;;;;;;9.08;100.00;101327.75;702022;28;808;-64
2021/11/21 00:35:29;;;;;;;13.15;6.00;;;;;;;9.06;100.00;101327.81;702174;28;951;-63
2021/11/21 00:35:49;;;;;;;11.87;5.87;;;;;;;9.07;100.00;101326.91;702239;28;898;-65
2021/11/21 00:36:10;;;;;;;9.60;5.60;;;;;;;9.08;100.00;101330.38;701965;28;1033;-64
2021/11/21 00:36:30;;;;;;;11.47;5.97;;;;;;;9.08;100.00;101333.00;702261;28;805;-64
2021/11/21 00:36:50;;;;;;;12.27;6.00;;;;;;;9.08;100.00;101327.75;702215;28;918;-64
2021/11/21 00:37:11;;;;;;;12.10;6.10;;;;;;;9.08;100.00;101330.38;702005;28;977;-64
2021/11/21 00:37:31;;;;;;;10.18;5.72;;;;;;;9.09;100.00;101334.75;702256;28;867;-63
2021/11/21 00:37:51;;;;;;;11.57;5.87;;;;;;;9.08;100.00;101327.75;701692;28;783;-64
2021/11/21 00:38:12;;;;;;;12.10;6.20;;;;;;;9.09;100.00;101326.88;702102;28;878;-63
2021/11/21 00:38:32;;;;;;;12.60;6.33;;;;;;;9.08;100.00;101328.59;702270;28;807;-64
2021/11/21 00:38:53;;;;;;;12.50;6.20;;;;;;;9.10;100.00;101328.59;702120;28;862;-63
2021/11/21 00:39:13;;;;;;;16.30;6.53;;;;;;;9.09;100.00;101334.75;702091;28;1353;-63
2021/11/21 00:39:33;;;;;;;13.70;6.10;;;;;;;9.09;100.00;101330.34;702131;28;1086;-63
2021/11/21 00:39:55;;;;;;;9.85;5.97;;;;;;;9.07;100.00;101326.91;702127;28;816;-63
2021/11/21 00:40:16;;;;;;;12.00;6.18;;;;;;;9.08;100.00;101325.13;702012;28;907;-63
2021/11/21 00:40:36;;;;;;;12.10;6.33;;;;;;;9.07;100.00;101328.66;702301;28;841;-63
2021/11/21 00:40:59;;;;;;;12.38;6.55;;;;;;;9.08;100.00;101327.75;702123;28;895;-63
2021/11/21 00:41:20;;;;;;;11.23;6.25;;;;;;;9.09;100.00;101324.25;702083;28;906;-63
2021/11/21 00:41:40;;;;;;;11.43;6.15;;;;;;;9.09;100.00;101326.88;702101;28;837;-63
2021/11/21 00:42:00;;;;;;;12.10;6.30;;;;;;;9.10;100.00;101320.69;702196;28;912;-63
2021/11/21 00:42:21;;;;;;;12.07;6.30;;;;;;;9.10;100.00;101325.94;702154;28;816;-63
2021/11/21 00:42:41;;;;;;;11.50;6.10;;;;;;;9.10;100.00;101325.94;702200;28;925;-63
2021/11/21 00:43:45;;;;;;;12.85;6.75;;;;;;;9.15;100.00;101326.66;699047;28;1175;-64
2021/11/21 00:44:07;;;;;;;13.32;6.82;;;;;;;9.13;100.00;101315.34;702135;28;891;-64
2021/11/21 00:44:27;;;;;;;13.70;6.80;;;;;;;9.15;100.00;101318.78;702092;28;950;-64
2021/11/21 00:44:51;;;;;;;13.45;6.80;;;;;;;9.17;100.00;101322.25;702207;28;1177;-64
2021/11/21 00:45:12;;;;;;;13.15;6.45;;;;;;;9.15;100.00;101319.66;702135;28;910;-64
2021/11/21 00:45:33;;;;;;;13.93;6.47;;;;;;;9.16;100.00;101324.03;702048;28;880;-64
2021/11/21 00:45:53;;;;;;;12.53;6.80;;;;;;;9.15;100.00;101324.94;701996;28;899;-64
2021/11/21 00:46:13;;;;;;;12.27;6.83;;;;;;;9.15;100.00;101318.78;701996;28;993;-64
2021/11/21 00:46:34;;;;;;;12.27;6.18;;;;;;;9.14;100.00;101317.06;702137;28;794;-64
2021/11/21 00:47:00;;;;;;;13.07;6.37;;;;;;;9.18;100.00;101321.31;702226;28;850;-64
2021/11/21 00:47:20;;;;;;;11.05;5.72;;;;;;;9.16;100.00;101315.28;702057;28;934;-64
2021/11/21 00:47:41;;;;;;;11.33;5.93;;;;;;;9.17;100.00;101320.47;702037;28;930;-65
2021/11/21 00:48:02;;;;;;;10.40;6.20;;;;;;;9.17;100.00;101325.72;701677;28;985;-64
2021/11/21 00:48:23;;;;;;;11.13;6.07;;;;;;;9.16;100.00;101320.53;702091;28;800;-64
2021/11/21 00:48:43;;;;;;;10.38;5.90;;;;;;;9.14;100.00;101311.81;702214;28;889;-64
2021/11/21 00:49:07;;;;;;;11.25;5.68;;;;;;;9.15;100.00;101318.78;702050;28;926;-64
2021/11/21 00:49:30;;;;;;;11.60;5.80;;;;;;;9.14;100.00;101315.28;702303;28;1258;-65
2021/11/21 00:49:51;;;;;;;10.64;5.54;;;;;;;9.13;100.00;101317.97;701955;28;875;-65
2021/11/21 00:50:15;;;;;;;9.83;4.80;;;;;;;9.18;100.00;101318.69;702274;28;757;-65
2021/11/21 00:50:36;;;;;;;10.32;5.00;;;;;;;9.19;100.00;101315.19;702113;28;899;-64
2021/11/21 00:51:00;;;;;;;9.00;4.87;;;;;;;9.16;100.00;101317.91;702121;28;930;-65
2021/11/21 00:51:20;;;;;;;10.50;4.78;;;;;;;9.18;100.00;101318.69;702274;28;908;-64
2021/11/21 00:51:42;;;;;;;10.23;4.70;;;;;;;9.18;100.00;101310.81;701967;28;974;-64
2021/11/21 00:52:03;;;;;;;8.48;4.60;;;;;;;9.16;100.00;101315.28;702170;28;973;-64
2021/11/21 00:52:23;;;;;;;8.80;4.53;;;;;;;9.15;100.00;101318.78;702194;28;913;-64
2021/11/21 00:52:47;;;;;;;8.93;4.78;;;;;;;9.15;100.00;101311.78;702072;28;803;-64
2021/11/21 00:53:07;;;;;;;8.85;4.88;;;;;;;9.16;100.00;101313.50;702180;28;1905;-63
2021/11/21 00:53:28;;;;;;;8.17;4.60;;;;;;;9.18;100.00;101316.06;702225;28;954;-64
2021/11/21 00:53:53;;;;;;;9.10;4.70;;;;;;;9.15;100.00;101316.16;702071;28;1001;-64
2021/11/21 00:55:07;;;;;;;10.00;4.78;;;;;;;9.20;100.00;101316.91;702164;28;666;-64
2021/11/21 00:55:37;;;;;;;8.60;4.85;;;;;;;9.18;100.00;101316.06;702279;28;918;-64
2021/11/21 00:56:04;;;;;;;9.10;4.45;;;;;;;9.18;100.00;101314.28;701761;28;1325;-64
2021/11/21 00:56:25;;;;;;;9.35;4.47;;;;;;;9.16;100.00;101312.63;701893;28;882;-64
2021/11/21 00:56:45;;;;;;;10.00;4.83;;;;;;;9.18;100.00;101316.06;701814;28;1009;-64
2021/11/21 00:57:06;;;;;;;11.10;5.10;;;;;;;9.16;100.00;101318.75;701919;28;982;-64
2021/11/21 00:57:29;;;;;;;10.05;4.75;;;;;;;9.16;100.00;101310.88;701476;28;1415;-64
2021/11/21 00:57:49;;;;;;;10.10;4.93;;;;;;;9.14;100.00;101309.19;701599;28;809;-64
2021/11/21 00:58:12;;;;;;;10.63;5.07;;;;;;;9.15;100.00;101313.53;701957;28;1002;-64
2021/11/21 00:58:33;;;;;;;9.48;4.95;;;;;;;9.15;100.00;101313.53;702131;28;997;-63
2021/11/21 00:58:53;;;;;;;9.75;4.72;;;;;;;9.14;100.00;101306.56;702100;28;874;-64
2021/11/21 00:59:19;;;;;;;9.10;5.17;;;;;;;9.13;100.00;101305.69;702207;28;1412;-64
2021/11/21 00:59:39;;;;;;;9.63;4.90;;;;;;;9.18;100.00;101313.44;701976;28;906;-63
2021/11/21 00:59:59;;;;;;;11.13;5.40;;;;;;;9.18;100.00;101305.56;701935;28;895;-64
2021/11/21 01:00:20;;;;;;;9.97;5.53;;;;;;;9.18;100.00;101309.03;702182;28;891;-63
2021/11/21 01:00:43;;;;;;;10.90;5.40;;;;;;;9.19;100.00;101309.94;702178;28;879;-63
2021/11/21 01:01:06;;;;;;;9.93;5.40;;;;;;;9.19;100.00;101304.66;702143;28;796;-64
2021/11/21 01:01:26;;;;;;;12.10;5.50;;;;;;;9.16;100.00;101304.75;702095;28;778;-64
2021/11/21 01:01:48;;;;;;;11.67;5.43;;;;;;;9.18;100.00;101308.19;702098;28;919;-64
2021/11/21 01:02:11;;;;;;;11.15;5.20;;;;;;;9.14;100.00;101294.25;702014;28;924;-64
2021/11/21 01:02:31;;;;;;;11.32;5.47;;;;;;;9.19;100.00;101302.91;702081;28;978;-64
2021/11/21 01:02:52;;;;;;;10.70;5.60;;;;;;;9.17;100.00;101301.19;702130;28;815;-63
2021/11/21 01:03:18;;;;;;;11.93;5.57;;;;;;;9.16;100.00;101304.75;702083;28;1538;-64
2021/11/21 01:03:39;;;;;;;11.73;5.40;;;;;;;9.16;100.00;101304.75;702027;28;1498;-64
2021/11/21 01:04:01;;;;;;;12.03;5.60;;;;;;;9.17;100.00;101303.84;702007;28;846;-63
2021/11/21 01:04:22;;;;;;;13.77;5.65;;;;;;;9.18;100.00;101295.03;701990;28;911;-64
2021/11/21 01:04:43;;;;;;;13.27;5.33;;;;;;;9.20;100.00;101296.72;702178;28;833;-64
2021/11/21 01:05:06;;;;;;;11.80;5.68;;;;;;;9.19;100.00;101295.00;701935;28;892;-64
2021/11/21 01:05:26;;;;;;;11.65;5.70;;;;;;;9.21;100.00;101298.44;702086;28;1370;-63
2021/11/21 01:05:48;;;;;;;10.67;5.60;;;;;;;9.21;100.00;101297.56;701946;28;1028;-64
2021/11/21 01:06:09;;;;;;;10.55;5.50;;;;;;;9.21;100.00;101302.84;702135;28;815;-63
2021/11/21 01:06:29;;;;;;;9.90;5.65;;;;;;;9.19;100.00;101299.41;702016;28;934;-63
2021/11/21 01:06:50;;;;;;;11.47;5.83;;;;;;;9.20;100.00;101298.50;702093;28;974;-63
2021/11/21 01:07:13;;;;;;;12.73;6.13;;;;;;;9.19;100.00;101305.53;702129;28;874;-64
2021/11/21 01:07:38;;;;;;;11.57;6.20;;;;;;;9.19;100.00;101302.91;702160;28;844;-64
2021/11/21 01:07:58;;;;;;;11.85;5.95;;;;;;;9.19;100.00;101288.88;701564;28;800;-65
2021/11/21 01:08:19;;;;;;;12.13;6.15;;;;;;;9.19;100.00;101291.50;702041;28;854;-64
2021/11/21 01:08:39;;;;;;;10.30;5.82;;;;;;;9.20;100.00;101295.88;702122;28;929;-64
2021/11/21 01:09:00;;;;;;;10.00;5.63;;;;;;;9.21;100.00;101287.06;702035;28;1002;-63
2021/11/21 01:09:24;;;;;;;13.17;6.00;;;;;;;9.20;100.00;101295.88;702257;28;1225;-63
2021/11/21 01:09:44;;;;;;;11.98;5.80;;;;;;;9.20;100.00;101291.47;702008;28;907;-64
2021/11/21 01:10:07;;;;;;;12.07;5.90;;;;;;;9.20;100.00;101290.59;702050;28;1005;-64
2021/11/21 01:10:28;;;;;;;12.50;5.80;;;;;;;9.21;100.00;101289.69;702124;28;891;-64
2021/11/21 01:10:53;;;;;;;11.82;5.85;;;;;;;9.21;100.00;101292.31;702006;28;903;-64
2021/11/21 01:11:13;;;;;;;11.88;6.00;;;;;;;9.22;100.00;101291.41;702113;28;988;-64
2021/11/21 01:11:34;;;;;;;10.73;5.77;;;;;;;9.22;100.00;101299.28;702034;28;848;-63
2021/11/21 01:11:56;;;;;;;12.30;5.60;;;;;;;9.22;100.00;101292.28;702194;28;1096;-64
2021/11/21 01:12:17;;;;;;;12.32;5.97;;;;;;;9.24;100.00;101297.50;701929;28;938;-65
2021/11/21 01:12:40;;;;;;;11.70;5.77;;;;;;;9.23;100.00;101290.50;701961;28;863;-64
2021/11/21 01:13:04;;;;;;;11.65;5.68;;;;;;;9.23;100.00;101295.78;702139;28;920;-63
2021/11/21 01:13:25;;;;;;;12.98;5.75;;;;;;;9.23;100.00;101294.00;702017;28;1076;-64
2021/11/21 01:13:45;;;;;;;12.57;5.90;;;;;;;9.24;100.00;101300.97;702215;28;867;-64
2021/11/21 01:14:07;;;;;;;11.55;5.75;;;;;;;9.24;100.00;101297.50;701994;28;1089;-64
2021/11/21 01:14:29;;;;;;;13.05;6.07;;;;;;;9.23;100.00;101293.16;702045;28;847;-64
2021/11/21 01:14:49;;;;;;;12.32;6.07;;;;;;;9.24;100.00;101294.84;702111;28;824;-63
2021/11/21 01:15:14;;;;;;;12.93;6.00;;;;;;;9.25;100.00;101299.22;702080;28;805;-64
2021/11/21 01:15:35;;;;;;;13.10;5.60;;;;;;;9.23;100.00;101293.16;702195;28;938;-65
2021/11/21 01:15:55;;;;;;;10.23;5.70;;;;;;;9.23;100.00;101291.38;702135;28;1029;-65
2021/11/21 01:16:16;;;;;;;12.37;6.00;;;;;;;9.24;100.00;101294.84;702056;28;985;-65
2021/11/21 01:16:37;;;;;;;13.02;6.15;;;;;;;9.23;100.00;101291.38;702080;28;915;-65
2021/11/21 01:17:00;;;;;;;12.85;6.25;;;;;;;9.23;100.00;101285.25;702160;28;989;-63
2021/11/21 01:17:23;;;;;;;12.52;6.47;;;;;;;9.25;100.00;101293.94;702052;28;938;-64
2021/11/21 01:17:44;;;;;;;13.73;6.22;;;;;;;9.24;100.00;101292.22;701723;28;918;-64
2021/11/21 01:18:06;;;;;;;11.73;6.13;;;;;;;9.26;100.00;101295.69;702035;28;942;-63
2021/11/21 01:18:27;;;;;;;10.95;6.20;;;;;;;9.27;100.00;101292.16;702091;28;1025;-63
2021/11/21 01:18:47;;;;;;;12.68;6.47;;;;;;;9.24;100.00;101290.47;701958;28;849;-64
2021/11/21 01:19:07;;;;;;;14.13;6.47;;;;;;;9.26;100.00;101301.81;701848;28;872;-64
2021/11/21 01:19:31;;;;;;;13.73;6.30;;;;;;;9.25;100.00;101288.69;701880;28;1460;-64
2021/11/21 01:19:52;;;;;;;14.32;6.00;;;;;;;9.30;100.00;101292.06;701930;28;870;-64
2021/11/21 01:20:12;;;;;;;10.57;5.30;;;;;;;9.32;100.00;101295.50;702001;28;835;-64
2021/11/21 01:20:35;;;;;;;11.32;5.30;;;;;;;9.30;100.00;101296.47;701813;28;869;-63
2021/11/21 01:20:56;;;;;;;12.02;5.40;;;;;;;9.30;100.00;101296.47;701993;28;866;-63
2021/11/21 01:21:19;;;;;;;11.40;5.13;;;;;;;9.29;100.00;101290.34;701726;28;997;-63
2021/11/21 01:21:39;;;;;;;10.70;5.43;;;;;;;9.30;100.00;101299.94;701826;28;820;-64
2021/11/21 01:22:02;;;;;;;12.82;5.70;;;;;;;9.29;100.00;101295.59;701907;28;915;-64
2021/11/21 01:22:22;;;;;;;9.57;5.07;;;;;;;9.27;100.00;101292.16;699002;28;1205;-63
2021/11/21 01:22:42;;;;;;;11.50;5.30;;;;;;;9.26;100.00;101293.06;698999;28;816;-64
2021/11/21 01:23:03;;;;;;;12.23;5.30;;;;;;;9.28;100.00;101296.50;699930;28;944;-63
2021/11/21 01:23:24;;;;;;;13.53;5.23;;;;;;;9.27;100.00;101286.88;701899;28;875;-63
2021/11/21 01:23:44;;;;;;;11.02;5.10;;;;;;;9.26;100.00;101287.81;701854;28;939;-64
2021/11/21 01:24:05;;;;;;;9.90;4.53;;;;;;;9.27;100.00;101292.16;701841;28;998;-64
2021/11/21 01:24:34;;;;;;;10.90;5.03;;;;;;;9.25;100.00;101288.69;701992;28;902;-64
2021/11/21 01:24:55;;;;;;;12.02;5.10;;;;;;;9.27;100.00;101290.38;702179;28;851;-65
2021/11/21 01:25:16;;;;;;;11.65;4.65;;;;;;;9.28;100.00;101293.84;702058;28;868;-65
2021/11/21 01:25:37;;;;;;;10.30;4.20;;;;;;;9.26;100.00;101285.16;701995;28;859;-64
2021/11/21 01:25:57;;;;;;;10.80;4.30;;;;;;;9.27;100.00;101286.88;702162;28;922;-65
2021/11/21 01:26:17;;;;;;;10.90;4.22;;;;;;;9.28;100.00;101291.22;702201;28;1057;-64
2021/11/21 01:26:38;;;;;;;9.93;4.03;;;;;;;9.27;100.00;101287.75;702063;28;1030;-64
2021/11/21 01:27:01;;;;;;;9.20;4.38;;;;;;;9.28;100.00;101288.59;702172;28;891;-64
2021/11/21 01:27:22;;;;;;;8.35;4.13;;;;;;;9.28;100.00;101284.19;701708;28;918;-64
2021/11/21 01:27:43;;;;;;;11.18;4.20;;;;;;;9.27;100.00;101282.47;701632;28;930;-64
2021/11/21 01:28:03;;;;;;;8.23;4.40;;;;;;;9.29;100.00;101290.34;701702;28;969;-65
2021/11/21 01:28:25;;;;;;;8.60;4.07;;;;;;;9.29;100.00;101285.09;701859;28;974;-67
2021/11/21 01:28:45;;;;;;;10.10;4.10;;;;;;;9.29;100.00;101285.09;701854;28;891;-66
2021/11/21 01:29:05;;;;;;;9.40;4.10;;;;;;;9.28;100.00;101283.34;701863;28;1040;-65
2021/11/21 01:29:26;;;;;;;8.80;4.07;;;;;;;9.29;100.00;101287.72;702008;28;1268;-66
2021/11/21 01:29:46;;;;;;;10.63;4.30;;;;;;;9.30;100.00;101285.94;702047;28;827;-66
2021/11/21 01:30:11;;;;;;;9.90;4.23;;;;;;;9.29;100.00;101285.09;702053;28;829;-66
2021/11/21 01:30:32;;;;;;;9.88;4.38;;;;;;;9.29;100.00;101279.81;702154;28;863;-67
2021/11/21 01:30:52;;;;;;;8.15;4.03;;;;;;;9.30;100.00;101278.91;702148;28;804;-67
2021/11/21 01:31:12;;;;;;;8.57;3.90;;;;;;;9.28;100.00;101278.06;701975;28;963;-67
2021/11/21 01:31:35;;;;;;;10.05;3.95;;;;;;;9.30;100.00;101283.31;702237;28;776;-68
2021/11/21 01:31:56;;;;;;;11.95;4.20;;;;;;;9.29;100.00;101279.81;702164;28;1405;-68
2021/11/21 01:32:16;;;;;;;9.67;4.07;;;;;;;9.28;100.00;101278.94;702300;28;926;-67
2021/11/21 01:32:36;;;;;;;9.55;4.32;;;;;;;9.28;100.00;101278.06;702275;28;1001;-67
2021/11/21 01:32:59;;;;;;;11.33;4.50;;;;;;;9.31;100.00;101279.75;702167;28;824;-68
2021/11/21 01:33:20;;;;;;;9.25;4.15;;;;;;;9.29;100.00;101279.81;702184;28;1969;-68
2021/11/21 01:33:43;;;;;;;9.67;3.90;;;;;;;9.30;100.00;101280.69;702169;28;792;-69
2021/11/21 01:34:03;;;;;;;10.45;4.38;;;;;;;9.28;100.00;101280.72;702329;28;855;-68
2021/11/21 01:34:23;;;;;;;8.40;4.10;;;;;;;9.26;100.00;101275.50;702221;28;841;-69
2021/11/21 01:34:44;;;;;;;9.57;4.00;;;;;;;9.25;100.00;101280.78;702272;28;787;-69
2021/11/21 01:35:08;;;;;;;9.90;4.32;;;;;;;9.25;100.00;101283.41;702325;28;839;-68
2021/11/21 01:35:30;;;;;;;10.75;4.38;;;;;;;9.25;100.00;101286.06;702161;28;897;-68
2021/11/21 01:35:50;;;;;;;10.10;4.22;;;;;;;9.25;100.00;101280.78;702355;28;761;-67
2021/11/21 01:36:10;;;;;;;9.47;3.97;;;;;;;9.23;100.00;101280.84;702311;28;871;-69
2021/11/21 01:36:31;;;;;;;10.23;4.38;;;;;;;9.24;100.00;101286.97;702207;28;982;-68
2021/11/21 01:36:55;;;;;;;9.10;4.33;;;;;;;9.27;100.00;101277.22;702212;28;1009;-69
2021/11/21 01:37:17;;;;;;;9.98;4.30;;;;;;;9.26;100.00;101278.13;702115;28;1027;-67
2021/11/21 01:37:38;;;;;;;9.15;4.10;;;;;;;9.25;100.00;101281.66;702035;28;930;-67
2021/11/21 01:38:00;;;;;;;10.23;4.20;;;;;;;9.28;100.00;101276.31;701624;28;827;-66
2021/11/21 01:38:20;;;;;;;12.18;4.20;;;;;;;9.28;100.00;101284.19;702037;28;867;-66
2021/11/21 01:38:42;;;;;;;9.68;4.30;;;;;;;9.28;100.00;101272.81;702037;28;852;-66
2021/11/21 01:39:06;;;;;;;9.82;4.35;;;;;;;9.27;100.00;101276.38;702074;28;941;-66
2021/11/21 01:39:26;;;;;;;10.73;4.32;;;;;;;9.27;100.00;101279.00;702027;28;1205;-66
2021/11/21 01:39:49;;;;;;;8.33;4.13;;;;;;;9.27;100.00;101277.22;702093;28;930;-67
2021/11/21 01:40:12;;;;;;;8.90;4.35;;;;;;;9.26;100.00;101270.25;701886;28;972;-68
2021/11/21 01:40:33;;;;;;;9.05;4.55;;;;;;;9.28;100.00;101276.31;702056;28;965;-66
2021/11/21 01:40:53;;;;;;;10.43;4.60;;;;;;;9.27;100.00;101271.09;702151;28;907;-66
2021/11/21 01:41:14;;;;;;;10.85;4.43;;;;;;;9.30;100.00;101271.00;702056;28;879;-66
2021/11/21 01:41:36;;;;;;;11.87;4.90;;;;;;;9.31;100.00;101266.59;702134;28;968;-66
2021/11/21 01:41:56;;;;;;;11.40;4.70;;;;;;;9.30;100.00;101268.38;701986;28;816;-66
2021/11/21 01:42:19;;;;;;;14.00;4.93;;;;;;;9.30;100.00;101271.00;702059;28;1416;-66
2021/11/21 01:42:41;;;;;;;12.60;4.90;;;;;;;9.30;100.00;101272.78;701991;28;843;-66
2021/11/21 01:43:03;;;;;;;11.75;4.80;;;;;;;9.30;100.00;101271.00;701930;28;937;-67
2021/11/21 01:43:24;;;;;;;11.85;4.75;;;;;;;9.30;100.00;101276.28;702083;28;849;-66